createdAt,value
2023-05-19T00:01:21.453Z,9.27
2023-05-19T00:03:54.471Z,6.63
2023-05-19T00:06:32.979Z,9.00
2023-05-19T00:09:05.533Z,6.80
2023-05-19T00:11:36.297Z,5.82
2023-05-19T00:14:05.887Z,5.93
2023-05-19T00:16:33.982Z,6.80
2023-05-19T00:19:03.201Z,5.47
2023-05-19T00:21:31.797Z,5.13
2023-05-19T00:24:18.653Z,7.38
2023-05-19T00:26:59.659Z,7.05
2023-05-19T00:29:27.367Z,8.75
2023-05-19T00:31:54.920Z,8.48
2023-05-19T00:34:22.247Z,5.55
2023-05-19T00:36:49.269Z,7.82
2023-05-19T00:39:16.557Z,8.23
2023-05-19T00:41:44.006Z,10.75
2023-05-19T00:44:11.341Z,10.93
2023-05-19T00:46:38.435Z,5.35
2023-05-19T00:49:25.690Z,10.15
2023-05-19T00:52:26.663Z,6.75
2023-05-19T00:55:27.788Z,7.80
2023-05-19T00:57:57.937Z,11.27
2023-05-19T01:00:24.869Z,9.73
2023-05-19T01:02:52.413Z,7.40
2023-05-19T01:05:19.924Z,10.98
2023-05-19T01:07:47.595Z,5.75
2023-05-19T01:10:15.096Z,8.20
2023-05-19T01:12:42.209Z,7.05
2023-05-19T01:15:10.146Z,11.30
2023-05-19T01:17:55.009Z,16.42
2023-05-19T01:20:36.422Z,8.52
2023-05-19T01:23:54.805Z,6.95
2023-05-19T01:26:56.765Z,7.97
2023-05-19T01:29:30.544Z,8.32
2023-05-19T01:32:00.358Z,7.13
2023-05-19T01:34:29.591Z,8.07
2023-05-19T01:37:01.338Z,6.28
2023-05-19T01:39:28.827Z,9.82
2023-05-19T01:41:58.294Z,7.50
2023-05-19T01:44:25.734Z,8.23
2023-05-19T01:46:53.431Z,7.95
2023-05-19T01:49:40.704Z,7.72
2023-05-19T01:52:21.375Z,13.27
2023-05-19T01:54:49.248Z,8.68
2023-05-19T01:57:38.100Z,7.47
2023-05-19T02:01:03.836Z,6.20
2023-05-19T02:04:24.801Z,7.38
2023-05-19T02:07:10.208Z,6.63
2023-05-19T02:09:40.855Z,9.95
2023-05-19T02:12:16.901Z,7.07
2023-05-19T02:14:55.316Z,6.97
2023-05-19T02:17:23.684Z,9.38
2023-05-19T02:19:52.023Z,9.13
2023-05-19T02:22:38.750Z,7.20
2023-05-19T02:25:21.794Z,11.75
2023-05-19T02:27:49.693Z,6.90
2023-05-19T02:30:16.852Z,7.72
2023-05-19T02:32:46.971Z,8.68
2023-05-19T02:35:14.293Z,9.63
2023-05-19T02:37:42.327Z,13.55
2023-05-19T02:40:11.138Z,7.32
2023-05-19T02:42:38.160Z,7.00
2023-05-19T02:45:05.879Z,10.30
2023-05-19T02:47:35.431Z,12.45
2023-05-19T02:50:25.180Z,11.35
2023-05-19T02:53:05.439Z,17.23
2023-05-19T02:55:32.507Z,9.35
2023-05-19T02:57:59.622Z,10.88
2023-05-19T03:00:51.736Z,9.52
2023-05-19T03:03:24.677Z,7.93
2023-05-19T03:06:06.320Z,9.65
2023-05-19T03:08:57.141Z,7.00
2023-05-19T03:11:35.629Z,12.27
2023-05-19T03:16:45.593Z,13.07
2023-05-19T03:19:21.432Z,17.67
2023-05-19T03:24:52.487Z,9.25
2023-05-19T03:28:11.891Z,10.05
2023-05-19T03:36:41.597Z,8.40
2023-05-19T03:45:16.540Z,6.78
2023-05-19T03:51:28.531Z,9.73
2023-05-19T03:54:38.741Z,6.80
2023-05-19T03:57:24.648Z,8.40
2023-05-19T04:03:16.167Z,10.50
2023-05-19T04:05:59.899Z,7.32
2023-05-19T04:16:08.455Z,9.38
2023-05-19T04:20:06.842Z,10.70
2023-05-19T04:24:33.810Z,9.30
2023-05-19T04:40:26.413Z,12.18
2023-05-19T06:27:16.121Z,18.60
2023-05-19T06:29:43.421Z,10.65
2023-05-19T06:32:11.120Z,26.25
2023-05-19T06:35:00.972Z,13.35
2023-05-19T06:37:41.701Z,10.77
2023-05-19T06:40:09.695Z,13.82
2023-05-19T06:42:39.007Z,9.10
2023-05-19T06:45:15.104Z,23.75
2023-05-19T06:47:42.822Z,8.07
2023-05-19T06:50:29.958Z,8.25
2023-05-19T06:53:10.588Z,8.68
2023-05-19T06:55:50.479Z,10.32
2023-05-19T06:58:27.362Z,14.63
2023-05-19T07:00:55.982Z,11.77
2023-05-19T07:03:27.688Z,14.88
2023-05-19T07:06:16.221Z,8.27
2023-05-19T07:09:18.928Z,7.88
2023-05-19T07:11:59.504Z,13.77
2023-05-19T07:14:28.065Z,11.18
2023-05-19T07:16:55.442Z,10.48
2023-05-19T07:19:24.251Z,8.27
2023-05-19T07:21:55.033Z,10.73
2023-05-19T07:24:22.367Z,9.02
2023-05-19T07:26:49.532Z,7.57
2023-05-19T07:29:16.523Z,7.07
2023-05-19T07:31:43.636Z,17.90
2023-05-19T07:34:32.069Z,9.27
2023-05-19T07:37:17.220Z,21.65
2023-05-19T07:39:44.276Z,9.10
2023-05-19T07:42:11.639Z,13.05
2023-05-19T07:44:39.099Z,13.07
2023-05-19T07:47:06.413Z,9.43
2023-05-19T07:49:54.022Z,10.75
2023-05-19T07:52:34.838Z,15.63
2023-05-19T07:55:02.382Z,16.13
2023-05-19T07:57:29.502Z,11.80
2023-05-19T07:59:56.657Z,23.45
2023-05-19T08:02:23.853Z,10.27
2023-05-19T08:04:51.087Z,10.70
2023-05-19T08:07:37.932Z,10.90
2023-05-19T08:10:18.864Z,7.50
2023-05-19T08:12:47.471Z,12.55
2023-05-19T08:15:14.598Z,11.80
2023-05-19T08:17:42.333Z,20.85
2023-05-19T08:20:12.550Z,15.63
2023-05-19T08:22:59.980Z,23.27
2023-05-19T08:26:00.988Z,12.32
2023-05-19T08:28:41.626Z,13.95
2023-05-19T08:31:08.793Z,9.45
2023-05-19T08:33:56.031Z,8.25
2023-05-19T08:36:36.714Z,14.35
2023-05-19T08:39:03.891Z,9.52
2023-05-19T08:41:31.410Z,9.88
2023-05-19T08:43:59.309Z,11.35
2023-05-19T08:46:29.399Z,9.63
2023-05-19T08:49:18.980Z,10.45
2023-05-19T08:52:52.503Z,10.80
2023-05-19T08:55:36.789Z,11.23
2023-05-19T08:58:06.798Z,9.18
2023-05-19T09:00:34.452Z,11.27
2023-05-19T09:03:17.383Z,11.52
2023-05-19T09:06:06.036Z,15.20
2023-05-19T09:08:47.326Z,8.75
2023-05-19T09:11:15.778Z,11.15
2023-05-19T09:13:43.888Z,14.02
2023-05-19T09:16:19.280Z,8.43
2023-05-19T09:19:06.038Z,24.48
2023-05-19T09:21:47.135Z,10.57
2023-05-19T09:24:48.196Z,14.10
2023-05-19T09:27:21.622Z,15.00
2023-05-19T09:29:51.461Z,9.82
2023-05-19T09:32:28.281Z,10.07
2023-05-19T09:35:28.041Z,12.18
2023-05-19T09:38:33.056Z,15.82
2023-05-19T09:43:42.107Z,17.88
2023-05-19T09:46:14.641Z,20.77
2023-05-19T09:48:42.672Z,14.32
2023-05-19T09:51:23.162Z,14.68
2023-05-19T09:54:04.764Z,10.70
2023-05-19T09:56:34.806Z,8.45
2023-05-19T09:59:04.090Z,14.10
2023-05-19T10:01:33.832Z,17.05
2023-05-19T10:04:01.392Z,16.25
2023-05-19T10:06:29.916Z,10.98
2023-05-19T10:08:58.550Z,11.40
2023-05-19T10:11:27.558Z,12.38
2023-05-19T10:14:15.223Z,14.57
2023-05-19T10:16:57.936Z,19.17
2023-05-19T10:19:29.890Z,16.05
2023-05-19T10:21:57.255Z,13.57
2023-05-19T10:24:24.594Z,19.45
2023-05-19T10:27:04.101Z,10.43
2023-05-19T10:29:39.769Z,13.15
2023-05-19T10:32:15.988Z,15.57
2023-05-19T10:35:18.503Z,9.02
2023-05-19T10:38:28.027Z,11.88
2023-05-19T10:41:27.127Z,11.23
2023-05-19T10:44:06.201Z,11.02
2023-05-19T10:46:33.622Z,12.45
2023-05-19T10:49:01.098Z,13.70
2023-05-19T10:52:03.805Z,15.45
2023-05-19T10:54:43.733Z,10.30
2023-05-19T10:57:17.545Z,10.95
2023-05-19T11:00:05.117Z,11.23
2023-05-19T11:02:46.264Z,10.10
2023-05-19T11:05:23.142Z,11.70
2023-05-19T11:08:26.110Z,17.70
2023-05-19T11:11:16.801Z,9.73
2023-05-19T11:13:51.109Z,12.35
2023-05-19T11:16:32.785Z,9.77
2023-05-19T11:19:00.131Z,12.57
2023-05-19T11:21:52.493Z,12.30
2023-05-19T11:24:40.676Z,11.82
2023-05-19T11:27:17.860Z,12.05
2023-05-19T11:29:45.075Z,10.73
2023-05-19T11:32:13.782Z,15.95
2023-05-19T11:34:41.766Z,9.65
2023-05-19T11:37:29.469Z,17.25
2023-05-19T11:40:31.152Z,18.33
2023-05-19T11:43:32.145Z,10.85
2023-05-19T11:46:02.230Z,17.08
2023-05-19T11:48:30.284Z,13.02
2023-05-19T11:51:20.088Z,12.10
2023-05-19T11:54:01.823Z,9.90
2023-05-19T11:56:54.230Z,9.32
2023-05-19T11:59:56.179Z,17.75
2023-05-19T12:02:39.738Z,9.50
2023-05-19T12:05:09.554Z,11.00
2023-05-19T12:07:39.587Z,9.40
2023-05-19T12:10:07.201Z,13.65
2023-05-19T12:12:35.529Z,8.70
2023-05-19T12:15:04.264Z,11.32
2023-05-19T12:17:33.043Z,9.45
2023-05-19T12:20:04.930Z,8.57
2023-05-19T12:22:32.176Z,14.02
2023-05-19T12:25:12.131Z,14.80
2023-05-19T12:28:14.294Z,12.00
2023-05-19T12:31:17.224Z,12.30
2023-05-19T12:34:18.288Z,12.05
2023-05-19T12:36:58.991Z,16.20
2023-05-19T12:39:47.538Z,10.98
2023-05-19T12:42:48.099Z,11.25
2023-05-19T12:45:54.253Z,12.80
2023-05-19T12:48:59.290Z,10.80
2023-05-19T12:52:13.205Z,11.13
2023-05-19T12:55:01.701Z,12.18
2023-05-19T12:57:50.653Z,12.98
2023-05-19T13:00:33.395Z,12.75
2023-05-19T13:03:05.718Z,10.38
2023-05-19T13:05:37.156Z,13.77
2023-05-19T13:08:10.523Z,11.98
2023-05-19T13:10:39.517Z,16.20
2023-05-19T13:13:08.082Z,16.27
2023-05-19T13:15:41.153Z,14.15
2023-05-19T13:18:10.329Z,9.48
2023-05-19T13:20:38.727Z,13.95
2023-05-19T13:23:13.357Z,10.48
2023-05-19T13:26:23.998Z,12.43
2023-05-19T13:29:25.236Z,11.18
2023-05-19T13:32:26.212Z,13.65
2023-05-19T13:35:07.400Z,12.07
2023-05-19T13:37:34.952Z,26.92
2023-05-19T13:40:23.152Z,13.98
2023-05-19T13:43:24.229Z,10.98
2023-05-19T13:46:11.790Z,13.68
2023-05-19T13:48:59.602Z,16.58
2023-05-19T13:52:00.293Z,15.55
2023-05-19T13:55:01.181Z,13.95
2023-05-19T13:58:02.245Z,12.13
2023-05-19T14:01:03.215Z,16.00
2023-05-19T14:03:50.548Z,15.07
2023-05-19T14:06:18.278Z,19.85
2023-05-19T14:09:05.200Z,15.30
2023-05-19T14:11:46.137Z,18.77
2023-05-19T14:14:13.353Z,18.83
2023-05-19T14:16:43.680Z,16.30
2023-05-19T14:19:11.556Z,18.58
2023-05-19T14:21:38.658Z,14.88
2023-05-19T14:24:06.245Z,17.35
2023-05-19T14:26:53.220Z,15.27
2023-05-19T14:29:55.196Z,8.60
2023-05-19T14:32:36.097Z,5.68
2023-05-19T14:35:03.534Z,10.90
2023-05-19T14:37:32.211Z,8.90
2023-05-19T14:40:00.061Z,9.90
2023-05-19T14:42:27.158Z,7.80
2023-05-19T14:44:54.611Z,12.63
2023-05-19T14:47:42.654Z,9.23
2023-05-19T14:50:43.228Z,10.55
2023-05-19T14:54:41.204Z,12.13
2023-05-19T14:57:45.274Z,10.07
2023-05-19T15:00:46.219Z,5.57
2023-05-19T15:03:27.102Z,10.25
2023-05-19T15:05:54.361Z,10.35
2023-05-19T15:08:41.609Z,13.48
2023-05-19T15:11:24.884Z,8.45
2023-05-19T15:13:52.192Z,7.43
2023-05-19T15:16:41.092Z,10.98
2023-05-19T15:19:24.155Z,7.82
2023-05-19T15:21:51.457Z,5.25
2023-05-19T15:24:19.272Z,5.95
2023-05-19T15:27:06.248Z,7.07
2023-05-19T15:30:08.233Z,18.50
2023-05-19T15:32:59.394Z,17.77
2023-05-19T15:35:26.626Z,5.80
2023-05-19T15:37:56.128Z,8.85
2023-05-19T15:40:24.144Z,8.15
2023-05-19T15:43:11.290Z,6.07
2023-05-19T15:46:12.329Z,6.38
2023-05-19T15:49:13.265Z,11.55
2023-05-19T15:52:15.263Z,4.22
2023-05-19T15:55:16.381Z,5.50
2023-05-19T15:58:17.392Z,6.00
2023-05-19T16:01:18.291Z,6.53
2023-05-19T16:03:59.126Z,8.10
2023-05-19T16:06:27.765Z,9.02
2023-05-19T16:08:55.360Z,8.65
2023-05-19T16:11:23.700Z,8.65
2023-05-19T16:13:51.196Z,10.48
2023-05-19T16:16:38.625Z,5.28
2023-05-19T16:19:39.442Z,5.20
2023-05-19T16:22:20.623Z,7.07
2023-05-19T16:25:09.301Z,6.57
2023-05-19T16:27:52.895Z,8.52
2023-05-19T16:30:20.690Z,9.00
2023-05-19T16:32:48.127Z,10.85
2023-05-19T16:35:24.084Z,7.47
2023-05-19T16:37:51.620Z,9.73
2023-05-19T16:40:22.776Z,9.23
2023-05-19T16:43:00.866Z,9.15
2023-05-19T16:46:05.709Z,8.50
2023-05-19T16:53:13.347Z,11.20
2023-05-19T16:56:19.756Z,7.07
2023-05-19T17:02:48.773Z,3.00
2023-05-19T17:05:36.329Z,2.60
2023-05-19T17:08:17.752Z,4.43
2023-05-19T17:10:45.862Z,11.35
2023-05-19T17:13:16.139Z,4.32
2023-05-19T17:16:15.465Z,10.13
2023-05-19T17:19:20.444Z,3.33
2023-05-19T17:22:22.817Z,2.97
2023-05-19T17:25:25.538Z,5.32
2023-05-19T17:28:00.855Z,5.20
2023-05-19T17:30:39.990Z,5.60
2023-05-19T17:33:08.589Z,5.32
2023-05-19T17:35:48.315Z,5.40
2023-05-19T17:38:31.433Z,6.55
2023-05-19T17:41:10.732Z,5.30
2023-05-19T17:43:42.410Z,6.88
2023-05-19T17:46:31.919Z,4.72
2023-05-19T17:49:38.660Z,8.27
2023-05-19T17:53:03.782Z,4.85
2023-05-19T17:55:51.515Z,8.20
2023-05-19T17:58:24.863Z,3.63
2023-05-19T18:01:13.504Z,3.10
2023-05-19T18:04:12.131Z,6.15
2023-05-19T18:06:58.460Z,2.78
2023-05-19T18:09:46.014Z,3.63
2023-05-19T18:12:30.033Z,10.88
2023-05-19T18:15:24.566Z,5.97
2023-05-19T18:18:23.210Z,7.18
2023-05-19T18:20:51.288Z,5.22
2023-05-19T18:23:43.863Z,3.63
2023-05-19T18:26:25.017Z,12.10
2023-05-19T18:29:23.535Z,6.25
2023-05-19T18:31:58.236Z,5.45
2023-05-19T18:51:58.111Z,5.47
2023-05-19T19:03:21.793Z,5.60
2023-05-19T19:11:16.788Z,7.75
2023-05-19T19:14:13.872Z,5.15
2023-05-19T19:21:17.609Z,4.28
2023-05-19T19:24:48.463Z,6.00
2023-05-19T19:39:01.347Z,10.57
2023-05-19T19:41:54.814Z,7.00
2023-05-19T19:44:23.987Z,6.78
2023-05-19T19:47:13.428Z,4.53
2023-05-19T19:50:14.705Z,5.10
2023-05-19T19:52:55.106Z,3.78
2023-05-19T19:55:22.326Z,4.40
2023-05-19T19:57:51.692Z,7.18
2023-05-19T20:00:38.476Z,4.85
2023-05-19T20:03:40.833Z,4.38
2023-05-19T20:06:41.394Z,4.32
2023-05-19T20:09:42.463Z,4.45
2023-05-19T20:12:23.076Z,12.35
2023-05-19T20:14:51.581Z,4.57
2023-05-19T20:17:18.684Z,5.70
2023-05-19T20:19:45.937Z,4.18
2023-05-19T20:22:15.426Z,5.20
2023-05-19T20:25:02.447Z,10.85
2023-05-19T20:27:43.109Z,6.57
2023-05-19T20:30:11.704Z,11.07
2023-05-19T20:32:39.860Z,5.88
2023-05-19T20:35:07.392Z,11.98
2023-05-19T20:37:55.160Z,13.70
2023-05-19T20:40:56.482Z,8.82
2023-05-19T20:43:37.781Z,8.20
2023-05-19T20:46:25.549Z,13.45
2023-05-19T20:49:26.541Z,14.02
2023-05-19T20:52:29.412Z,16.80
2023-05-19T20:55:30.926Z,9.57
2023-05-19T20:58:08.903Z,10.57
2023-05-19T21:00:36.377Z,9.05
2023-05-19T21:03:23.672Z,17.67
2023-05-19T21:06:24.448Z,16.10
2023-05-19T21:09:25.465Z,13.05
2023-05-19T21:12:21.962Z,10.50
2023-05-19T21:15:03.879Z,16.98
2023-05-19T21:17:31.252Z,11.95
2023-05-19T21:19:59.839Z,15.27
2023-05-19T21:22:47.569Z,22.35
2023-05-19T21:25:28.177Z,11.30
2023-05-19T21:27:56.209Z,14.80
2023-05-19T21:30:24.006Z,27.52
2023-05-19T21:32:53.537Z,15.00
2023-05-19T21:35:20.859Z,26.02
2023-05-19T21:37:48.404Z,11.50
2023-05-19T21:40:15.664Z,15.40
2023-05-19T21:42:42.836Z,23.50
2023-05-19T21:45:10.731Z,17.63
2023-05-19T21:47:38.086Z,20.08
2023-05-19T21:50:25.512Z,13.88
2023-05-19T21:53:09.566Z,18.55
2023-05-19T21:55:36.724Z,19.50
2023-05-19T21:58:04.350Z,17.23
2023-05-19T22:00:31.811Z,25.83
2023-05-19T22:03:00.825Z,28.40
2023-05-19T22:05:35.180Z,20.77
2023-05-19T22:08:02.394Z,20.08
2023-05-19T22:10:29.664Z,26.45
2023-05-19T22:12:57.714Z,25.85
2023-05-19T22:15:24.868Z,24.35
2023-05-19T22:17:52.034Z,26.52
2023-05-19T22:20:19.140Z,29.60
2023-05-19T22:22:46.157Z,27.67
2023-05-19T22:25:13.196Z,25.63
2023-05-19T22:27:40.519Z,26.67
2023-05-19T22:30:08.207Z,27.00
2023-05-19T22:32:35.860Z,26.50
2023-05-19T22:35:02.994Z,28.50
2023-05-19T22:37:51.505Z,25.42
2023-05-19T22:40:52.500Z,36.28
2023-05-19T22:43:33.098Z,24.90
2023-05-19T22:46:20.627Z,29.30
2023-05-19T22:49:21.518Z,34.47
2023-05-19T22:52:23.950Z,27.55
2023-05-19T22:55:24.615Z,28.00
2023-05-19T22:58:25.620Z,36.58
2023-05-19T23:01:06.346Z,30.60
2023-05-19T23:03:33.434Z,28.27
2023-05-19T23:06:00.464Z,32.00
2023-05-19T23:08:47.512Z,32.13
2023-05-19T23:11:28.465Z,28.75
2023-05-19T23:13:55.429Z,33.53
2023-05-19T23:16:22.854Z,31.13
2023-05-19T23:18:49.936Z,33.13
2023-05-19T23:21:16.917Z,36.90
2023-05-19T23:24:04.508Z,38.60
2023-05-19T23:26:45.458Z,34.80
2023-05-19T23:29:32.558Z,34.17
2023-05-19T23:32:13.129Z,31.50
2023-05-19T23:34:40.113Z,32.17
2023-05-19T23:37:07.956Z,31.08
2023-05-19T23:39:35.037Z,36.85
2023-05-19T23:42:02.575Z,30.58
2023-05-19T23:44:30.161Z,26.73
2023-05-19T23:46:57.494Z,32.63
2023-05-19T23:49:44.520Z,24.45
2023-05-19T23:52:45.531Z,29.30
2023-05-19T23:55:34.049Z,26.23
2023-05-19T23:58:02.030Z,25.60
